createdAt,value
2018-05-03T00:01:23.407Z,74.53
2018-05-03T00:03:51.335Z,74.66
2018-05-03T00:06:19.244Z,74.84
2018-05-03T00:08:47.150Z,75.07
2018-05-03T00:11:15.106Z,75.03
2018-05-03T00:13:43.015Z,74.89
2018-05-03T00:16:10.942Z,75.41
2018-05-03T00:18:38.863Z,75.55
2018-05-03T00:21:06.801Z,75.09
2018-05-03T00:23:34.776Z,75.44
2018-05-03T00:26:02.695Z,75.00
2018-05-03T00:28:30.638Z,75.12
2018-05-03T00:30:58.533Z,75.31
2018-05-03T00:33:26.483Z,75.80
2018-05-03T00:35:54.427Z,76.21
2018-05-03T00:38:22.343Z,76.23
2018-05-03T00:40:50.263Z,76.18
2018-05-03T00:43:18.163Z,76.35
2018-05-03T00:45:46.117Z,76.41
2018-05-03T00:48:14.044Z,76.63
2018-05-03T00:50:42.011Z,76.92
2018-05-03T00:53:09.889Z,77.19
2018-05-03T00:55:37.821Z,77.11
2018-05-03T00:58:05.711Z,76.91
2018-05-03T01:00:33.640Z,76.79
2018-05-03T01:03:01.635Z,76.76
2018-05-03T01:05:29.543Z,76.76
2018-05-03T01:07:57.442Z,76.34
2018-05-03T01:10:25.360Z,76.19
2018-05-03T01:12:53.271Z,76.08
2018-05-03T01:15:21.243Z,76.34
2018-05-03T01:17:49.127Z,75.82
2018-05-03T01:20:17.648Z,76.05
2018-05-03T01:22:45.599Z,75.94
2018-05-03T01:25:13.519Z,76.52
2018-05-03T01:27:41.452Z,76.73
2018-05-03T01:30:09.370Z,77.21
2018-05-03T01:32:37.331Z,76.81
2018-05-03T01:38:02.663Z,77.16
2018-05-03T01:40:30.571Z,77.17
2018-05-03T01:42:58.554Z,77.32
2018-05-03T01:45:26.482Z,77.27
2018-05-03T01:47:54.402Z,77.38
2018-05-03T01:50:22.316Z,77.11
2018-05-03T01:52:50.259Z,76.86
2018-05-03T01:55:18.188Z,77.34
2018-05-03T01:57:46.123Z,78.02
2018-05-03T02:00:14.022Z,78.18
2018-05-03T02:05:16.293Z,78.87
2018-05-03T02:07:44.236Z,79.40
2018-05-03T02:10:12.158Z,79.12
2018-05-03T02:12:40.153Z,79.04
2018-05-03T02:15:08.088Z,79.56
2018-05-03T02:17:36.004Z,79.58
2018-05-03T02:20:03.903Z,79.43
2018-05-03T02:22:31.815Z,79.70
2018-05-03T02:24:59.883Z,79.70
2018-05-03T02:27:27.781Z,79.72
2018-05-03T02:29:55.725Z,80.12
2018-05-03T02:32:23.652Z,80.29
2018-05-03T02:34:51.547Z,79.40
2018-05-03T02:37:19.450Z,80.04
2018-05-03T02:39:47.405Z,79.86
2018-05-03T02:42:15.294Z,79.63
2018-05-03T02:44:43.235Z,79.58
2018-05-03T02:47:11.429Z,79.88
2018-05-03T02:49:39.356Z,80.27
2018-05-03T02:52:07.547Z,80.64
2018-05-03T02:54:35.460Z,80.30
2018-05-03T02:57:15.087Z,80.12
2018-05-03T02:59:54.626Z,80.52
2018-05-03T03:02:28.321Z,80.38
2018-05-03T03:08:21.023Z,80.60
2018-05-03T03:11:17.133Z,79.90
2018-05-03T03:14:02.513Z,81.22
2018-05-03T03:16:48.052Z,81.32
2018-05-03T03:19:27.905Z,81.61
2018-05-03T03:22:13.341Z,81.60
2018-05-03T03:24:53.046Z,81.35
2018-05-03T03:27:38.400Z,81.80
2018-05-03T03:30:34.663Z,82.74
2018-05-03T03:33:14.343Z,83.22
2018-05-03T03:36:02.832Z,83.48
2018-05-03T03:38:42.515Z,83.52
2018-05-03T03:41:22.148Z,84.47
2018-05-03T03:44:01.768Z,84.76
2018-05-03T03:46:29.671Z,85.05
2018-05-03T03:48:57.627Z,84.70
2018-05-03T03:51:25.648Z,84.50
2018-05-03T03:53:53.541Z,84.29
2018-05-03T03:56:21.469Z,84.68
2018-05-03T03:58:49.382Z,84.28
2018-05-03T04:01:17.415Z,83.98
2018-05-03T04:03:45.363Z,83.92
2018-05-03T04:06:13.303Z,84.96
2018-05-03T04:08:41.297Z,84.93
2018-05-03T04:11:09.212Z,85.29
2018-05-03T04:13:37.421Z,84.22
2018-05-03T04:16:05.351Z,84.75
2018-05-03T04:18:44.994Z,83.86
2018-05-03T04:21:24.559Z,84.14
2018-05-03T04:24:13.077Z,83.89
2018-05-03T04:26:41.020Z,84.02
2018-05-03T04:29:08.985Z,83.77
2018-05-03T04:31:36.898Z,83.94
2018-05-03T04:34:05.111Z,83.30
2018-05-03T04:36:33.048Z,83.52
2018-05-03T04:39:00.990Z,83.43
2018-05-03T04:41:28.988Z,83.71
2018-05-03T04:43:56.911Z,83.61
2018-05-03T04:46:24.818Z,83.38
2018-05-03T04:48:52.876Z,83.52
2018-05-03T04:51:20.895Z,83.84
2018-05-03T04:53:48.856Z,84.61
2018-05-03T04:56:16.804Z,83.91
2018-05-03T04:58:44.715Z,84.44
2018-05-03T05:01:12.635Z,84.88
2018-05-03T05:03:40.556Z,84.70
2018-05-03T05:06:08.481Z,84.97
2018-05-03T05:08:36.419Z,84.33
2018-05-03T05:11:04.344Z,84.14
2018-05-03T05:13:32.281Z,83.79
2018-05-03T05:16:00.218Z,83.19
2018-05-03T05:18:28.120Z,82.09
2018-05-03T05:20:56.064Z,81.33
2018-05-03T05:23:24.009Z,81.08
2018-05-03T05:25:51.949Z,82.63
2018-05-03T05:28:19.865Z,79.99
2018-05-03T05:30:47.879Z,79.24
2018-05-03T05:33:15.761Z,77.95
2018-05-03T05:35:43.767Z,76.96
2018-05-03T05:38:11.700Z,77.06
2018-05-03T05:40:39.604Z,76.70
2018-05-03T05:43:07.556Z,75.00
2018-05-03T05:45:35.475Z,74.54
2018-05-03T05:48:03.477Z,74.31
2018-05-03T05:50:31.407Z,73.19
2018-05-03T05:52:59.381Z,73.57
2018-05-03T05:55:27.347Z,72.62
2018-05-03T05:57:55.509Z,71.87
2018-05-03T06:00:23.516Z,71.19
2018-05-03T06:02:51.472Z,70.82
2018-05-03T06:05:19.403Z,70.03
2018-05-03T06:07:47.383Z,69.96
2018-05-03T06:10:15.325Z,69.28
2018-05-03T06:12:43.301Z,69.25
2018-05-03T06:15:11.227Z,67.81
2018-05-03T06:17:39.171Z,67.97
2018-05-03T06:20:07.082Z,68.02
2018-05-03T06:22:35.048Z,67.44
2018-05-03T06:25:02.966Z,66.53
2018-05-03T06:27:30.885Z,66.10
2018-05-03T06:29:58.804Z,65.06
2018-05-03T06:32:26.731Z,64.61
2018-05-03T06:34:54.759Z,64.11
2018-05-03T06:37:22.683Z,63.48
2018-05-03T06:39:50.611Z,64.03
2018-05-03T06:42:18.568Z,63.82
2018-05-03T06:44:46.531Z,63.44
2018-05-03T06:47:14.512Z,63.64
2018-05-03T06:49:42.422Z,63.48
2018-05-03T06:52:10.362Z,62.79
2018-05-03T06:54:38.399Z,61.94
2018-05-03T06:57:06.426Z,62.13
2018-05-03T06:59:34.397Z,62.12
2018-05-03T07:02:03.186Z,60.68
2018-05-03T07:04:31.181Z,59.38
2018-05-03T07:06:59.095Z,59.03
2018-05-03T07:09:27.035Z,59.22
2018-05-03T07:11:54.943Z,59.19
2018-05-03T07:14:22.878Z,58.04
2018-05-03T07:16:50.824Z,59.35
2018-05-03T07:19:18.843Z,58.83
2018-05-03T07:21:46.710Z,57.96
2018-05-03T07:24:14.651Z,57.34
2018-05-03T07:26:42.607Z,56.13
2018-05-03T07:29:10.512Z,56.76
2018-05-03T07:31:38.471Z,56.89
2018-05-03T07:34:06.385Z,56.93
2018-05-03T07:36:34.361Z,58.19
2018-05-03T07:39:02.275Z,56.63
2018-05-03T07:41:30.196Z,57.07
2018-05-03T07:43:58.120Z,57.64
2018-05-03T07:46:26.044Z,57.36
2018-05-03T07:48:53.972Z,57.79
2018-05-03T07:51:21.911Z,60.00
2018-05-03T07:53:49.895Z,60.57
2018-05-03T07:56:17.818Z,60.81
2018-05-03T07:58:45.759Z,60.98
2018-05-03T08:01:13.678Z,59.76
2018-05-03T08:03:41.625Z,60.30
2018-05-03T08:06:09.539Z,60.34
2018-05-03T08:08:37.461Z,59.99
2018-05-03T08:11:05.383Z,59.86
2018-05-03T08:13:33.314Z,60.12
2018-05-03T08:16:01.241Z,59.77
2018-05-03T08:18:29.193Z,60.51
2018-05-03T08:20:57.314Z,60.00
2018-05-03T08:23:25.248Z,60.31
2018-05-03T08:25:53.188Z,59.81
2018-05-03T08:28:21.123Z,60.57
2018-05-03T08:30:49.054Z,62.05
2018-05-03T08:33:17.007Z,61.65
2018-05-03T08:35:44.916Z,62.18
2018-05-03T08:38:13.370Z,61.33
2018-05-03T08:40:41.275Z,60.97
2018-05-03T08:43:09.182Z,62.75
2018-05-03T08:45:37.118Z,63.27
2018-05-03T08:48:05.048Z,65.08
2018-05-03T08:50:33.006Z,65.31
2018-05-03T08:53:01.333Z,65.69
2018-05-03T08:55:29.289Z,65.92
2018-05-03T08:57:57.221Z,66.83
2018-05-03T09:00:25.135Z,67.90
2018-05-03T09:02:53.095Z,68.62
2018-05-03T09:05:21.043Z,69.27
2018-05-03T09:07:49.080Z,68.21
2018-05-03T09:10:16.973Z,68.26
2018-05-03T09:12:44.927Z,69.19
2018-05-03T09:15:12.864Z,70.02
2018-05-03T09:17:40.800Z,68.53
2018-05-03T09:20:08.695Z,66.52
2018-05-03T09:22:36.610Z,65.42
2018-05-03T09:25:04.747Z,62.63
2018-05-03T09:27:32.655Z,62.15
2018-05-03T09:30:00.547Z,60.70
2018-05-03T09:32:28.447Z,61.00
2018-05-03T09:34:56.642Z,58.84
2018-05-03T09:37:24.507Z,58.53
2018-05-03T09:39:52.444Z,59.15
2018-05-03T09:42:20.364Z,58.59
2018-05-03T09:44:48.312Z,60.02
2018-05-03T09:47:16.191Z,59.81
2018-05-03T09:49:44.100Z,59.38
2018-05-03T09:52:12.008Z,59.49
2018-05-03T09:54:39.930Z,60.22
2018-05-03T09:57:07.863Z,59.12
2018-05-03T09:59:35.816Z,57.78
2018-05-03T10:02:03.735Z,58.82
2018-05-03T10:04:31.637Z,59.43
2018-05-03T10:06:59.610Z,58.93
2018-05-03T10:09:27.534Z,57.54
2018-05-03T10:11:55.447Z,53.68
2018-05-03T10:14:23.369Z,56.47
2018-05-03T10:16:51.278Z,54.28
2018-05-03T10:19:19.180Z,56.18
2018-05-03T10:21:47.109Z,54.13
2018-05-03T10:24:15.004Z,54.49
2018-05-03T10:26:42.920Z,56.16
2018-05-03T10:29:10.842Z,54.63
2018-05-03T10:31:38.819Z,55.36
2018-05-03T10:34:06.727Z,54.45
2018-05-03T10:36:34.631Z,53.33
2018-05-03T10:39:02.555Z,51.59
2018-05-03T10:41:30.448Z,52.28
2018-05-03T10:43:58.379Z,50.14
2018-05-03T10:46:26.342Z,50.50
2018-05-03T10:48:54.256Z,50.85
2018-05-03T10:51:22.183Z,52.76
2018-05-03T10:53:50.108Z,52.19
2018-05-03T10:56:18.032Z,51.32
2018-05-03T10:58:45.925Z,51.58
2018-05-03T11:01:13.848Z,50.49
2018-05-03T11:03:41.766Z,49.65
2018-05-03T11:06:09.677Z,50.17
2018-05-03T11:08:37.587Z,49.69
2018-05-03T11:11:05.554Z,49.21
2018-05-03T11:13:34.263Z,49.64
2018-05-03T11:16:02.164Z,50.74
2018-05-03T11:18:30.273Z,50.47
2018-05-03T11:20:58.376Z,48.51
2018-05-03T11:23:26.540Z,47.83
2018-05-03T11:25:54.439Z,47.92
2018-05-03T11:28:22.346Z,47.38
2018-05-03T11:30:50.237Z,47.44
2018-05-03T11:33:18.163Z,44.52
2018-05-03T11:35:46.071Z,43.95
2018-05-03T11:38:14.161Z,45.01
2018-05-03T11:40:42.052Z,44.61
2018-05-03T11:43:10.019Z,43.16
2018-05-03T11:45:37.930Z,44.41
2018-05-03T11:48:05.857Z,42.36
2018-05-03T11:50:33.756Z,44.87
2018-05-03T11:53:01.768Z,43.36
2018-05-03T11:55:29.690Z,45.23
2018-05-03T11:57:57.602Z,42.53
2018-05-03T12:00:25.526Z,43.26
2018-05-03T12:02:53.472Z,44.07
2018-05-03T12:05:21.402Z,43.74
2018-05-03T12:07:49.318Z,43.95
2018-05-03T12:10:17.610Z,43.55
2018-05-03T12:12:45.528Z,42.89
2018-05-03T12:15:13.423Z,43.51
2018-05-03T12:17:41.410Z,43.10
2018-05-03T12:20:09.335Z,42.32
2018-05-03T12:22:37.238Z,44.29
2018-05-03T12:25:05.146Z,44.58
2018-05-03T12:27:33.043Z,44.89
2018-05-03T12:30:00.971Z,44.45
2018-05-03T12:32:28.875Z,42.40
2018-05-03T12:34:56.867Z,42.18
2018-05-03T12:37:24.713Z,41.39
2018-05-03T12:39:52.709Z,42.68
2018-05-03T12:42:20.623Z,42.04
2018-05-03T12:44:48.553Z,42.40
2018-05-03T12:47:16.480Z,42.71
2018-05-03T12:49:44.401Z,44.22
2018-05-03T12:52:12.296Z,44.09
2018-05-03T12:54:40.257Z,43.61
2018-05-03T12:57:08.164Z,42.50
2018-05-03T12:59:36.091Z,43.00
2018-05-03T13:02:03.996Z,42.09
2018-05-03T13:04:31.937Z,41.94
2018-05-03T13:06:59.869Z,41.85
2018-05-03T13:09:27.787Z,42.89
2018-05-03T13:11:55.696Z,38.24
2018-05-03T13:14:23.638Z,37.53
2018-05-03T13:16:51.635Z,38.09
2018-05-03T13:19:19.619Z,38.82
2018-05-03T13:21:47.557Z,38.91
2018-05-03T13:24:15.519Z,38.98
2018-05-03T13:26:43.427Z,40.34
2018-05-03T13:29:11.340Z,41.03
2018-05-03T13:31:39.263Z,38.48
2018-05-03T13:34:07.164Z,38.67
2018-05-03T13:36:35.109Z,39.13
2018-05-03T13:39:03.024Z,38.87
2018-05-03T13:41:30.968Z,37.66
2018-05-03T13:43:58.893Z,38.73
2018-05-03T13:46:26.804Z,42.24
2018-05-03T13:48:54.742Z,39.94
2018-05-03T13:51:22.646Z,40.19
2018-05-03T13:53:50.571Z,39.17
2018-05-03T13:56:18.507Z,37.83
2018-05-03T13:58:46.425Z,39.38
2018-05-03T14:01:14.394Z,39.05
2018-05-03T14:03:42.299Z,38.56
2018-05-03T14:06:10.203Z,38.10
2018-05-03T14:08:38.182Z,38.53
2018-05-03T14:11:06.078Z,37.98
2018-05-03T14:13:33.999Z,38.98
2018-05-03T14:16:01.914Z,39.23
2018-05-03T14:18:30.092Z,37.74
2018-05-03T14:20:58.079Z,38.76
2018-05-03T14:23:25.937Z,39.24
2018-05-03T14:25:53.856Z,38.49
2018-05-03T14:28:21.763Z,38.65
2018-05-03T14:30:49.729Z,37.75
2018-05-03T14:33:18.354Z,37.83
2018-05-03T14:35:46.281Z,38.75
2018-05-03T14:38:14.205Z,39.96
2018-05-03T14:40:42.176Z,39.62
2018-05-03T14:43:10.090Z,40.34
2018-05-03T14:45:38.029Z,40.97
2018-05-03T14:48:06.029Z,39.72
2018-05-03T14:50:33.951Z,39.12
2018-05-03T14:53:01.868Z,40.37
2018-05-03T14:55:29.822Z,42.22
2018-05-03T14:57:57.720Z,42.11
2018-05-03T15:00:25.700Z,43.27
2018-05-03T15:02:53.786Z,43.77
2018-05-03T15:05:21.733Z,44.26
2018-05-03T15:07:49.656Z,45.17
2018-05-03T15:10:17.582Z,45.00
2018-05-03T15:12:45.504Z,45.58
2018-05-03T15:15:13.472Z,46.15
2018-05-03T15:17:41.432Z,46.64
2018-05-03T15:20:09.350Z,47.11
2018-05-03T15:22:37.412Z,48.21
2018-05-03T15:25:05.311Z,48.24
2018-05-03T15:27:33.248Z,48.37
2018-05-03T15:30:01.180Z,48.60
2018-05-03T15:32:29.260Z,48.55
2018-05-03T15:34:57.167Z,47.85
2018-05-03T15:37:25.156Z,48.14
2018-05-03T15:39:53.088Z,47.93
2018-05-03T15:42:20.996Z,47.31
2018-05-03T15:44:48.986Z,48.14
2018-05-03T15:47:16.882Z,47.69
2018-05-03T15:49:44.811Z,46.99
2018-05-03T15:52:12.708Z,47.96
2018-05-03T15:54:40.640Z,48.06
2018-05-03T15:57:08.576Z,48.21
2018-05-03T15:59:36.475Z,48.84
2018-05-03T16:02:04.461Z,49.40
2018-05-03T16:04:32.394Z,49.31
2018-05-03T16:07:00.308Z,49.34
2018-05-03T16:09:28.239Z,50.50
2018-05-03T16:11:56.170Z,50.02
2018-05-03T16:14:24.118Z,50.47
2018-05-03T16:16:52.074Z,50.70
2018-05-03T16:19:20.163Z,50.82
2018-05-03T16:21:48.309Z,50.91
2018-05-03T16:24:16.269Z,51.27
2018-05-03T16:26:44.252Z,51.21
2018-05-03T16:29:12.164Z,51.55
2018-05-03T16:31:40.099Z,50.74
2018-05-03T16:34:08.089Z,50.40
2018-05-03T16:36:36.106Z,50.53
2018-05-03T16:39:04.021Z,50.14
2018-05-03T16:41:32.028Z,50.85
2018-05-03T16:43:59.942Z,50.27
2018-05-03T16:46:27.873Z,49.89
2018-05-03T16:48:55.813Z,49.43
2018-05-03T16:51:23.851Z,49.13
2018-05-03T16:53:51.751Z,49.04
2018-05-03T16:56:19.747Z,48.78
2018-05-03T16:58:47.659Z,49.45
2018-05-03T17:01:15.586Z,49.56
2018-05-03T17:03:43.490Z,49.88
2018-05-03T17:06:11.509Z,48.93
2018-05-03T17:08:39.399Z,48.60
2018-05-03T17:11:07.826Z,48.34
2018-05-03T17:13:35.942Z,49.05
2018-05-03T17:16:04.201Z,48.96
2018-05-03T17:18:32.131Z,48.62
2018-05-03T17:21:00.268Z,48.57
2018-05-03T17:23:28.208Z,49.00
2018-05-03T17:25:56.382Z,49.11
2018-05-03T17:28:24.344Z,50.41
2018-05-03T17:30:52.357Z,50.85
2018-05-03T17:33:20.448Z,50.60
2018-05-03T17:35:48.433Z,50.18
2018-05-03T17:38:16.439Z,49.65
2018-05-03T17:40:44.339Z,50.18
2018-05-03T17:43:12.273Z,50.57
2018-05-03T17:45:40.429Z,50.69
2018-05-03T17:48:08.506Z,50.71
2018-05-03T17:50:36.439Z,50.90
2018-05-03T17:53:04.456Z,51.09
2018-05-03T17:55:32.394Z,52.17
2018-05-03T17:58:00.294Z,51.46
2018-05-03T18:00:28.295Z,52.72
2018-05-03T18:02:57.289Z,52.62
2018-05-03T18:05:25.259Z,52.34
2018-05-03T18:07:53.156Z,52.78
2018-05-03T18:10:21.076Z,52.44
2018-05-03T18:12:49.044Z,52.85
2018-05-03T18:15:17.014Z,52.65
2018-05-03T18:17:45.155Z,52.55
2018-05-03T18:20:13.682Z,53.18
2018-05-03T18:22:41.604Z,53.28
2018-05-03T18:25:09.949Z,53.79
2018-05-03T18:27:38.763Z,54.02
2018-05-03T18:30:06.751Z,55.18
2018-05-03T18:32:34.804Z,53.65
2018-05-03T18:35:02.875Z,54.82
2018-05-03T18:37:30.818Z,54.27
2018-05-03T18:39:58.750Z,54.41
2018-05-03T18:42:26.887Z,54.23
2018-05-03T18:44:54.804Z,53.84
2018-05-03T18:47:22.834Z,53.65
2018-05-03T18:49:50.770Z,53.86
2018-05-03T18:52:18.671Z,53.84
2018-05-03T18:54:46.647Z,54.76
2018-05-03T18:57:14.560Z,55.14
2018-05-03T18:59:42.505Z,54.31
2018-05-03T19:02:10.472Z,52.83
2018-05-03T19:04:38.384Z,55.01
2018-05-03T19:07:06.310Z,55.31
2018-05-03T19:09:34.270Z,53.90
2018-05-03T19:12:02.233Z,56.93
2018-05-03T19:14:30.242Z,54.24
2018-05-03T19:16:58.208Z,54.46
2018-05-03T19:19:26.160Z,54.97
2018-05-03T19:21:54.966Z,54.59
2018-05-03T19:24:22.875Z,56.52
2018-05-03T19:26:50.825Z,54.92
2018-05-03T19:29:18.782Z,55.59
2018-05-03T19:31:46.757Z,55.82
2018-05-03T19:34:15.254Z,56.00
2018-05-03T19:36:43.157Z,55.84
2018-05-03T19:39:11.095Z,56.74
2018-05-03T19:41:39.044Z,56.07
2018-05-03T19:44:07.045Z,56.19
2018-05-03T19:46:34.978Z,55.92
2018-05-03T19:49:03.007Z,57.70
2018-05-03T19:51:30.896Z,56.84
2018-05-03T19:53:58.833Z,56.48
2018-05-03T19:56:26.781Z,57.24
2018-05-03T19:58:54.702Z,57.06
2018-05-03T20:01:22.619Z,56.43
2018-05-03T20:03:50.640Z,56.44
2018-05-03T20:06:18.761Z,56.89
2018-05-03T20:08:46.671Z,57.42
2018-05-03T20:11:14.635Z,57.51
2018-05-03T20:13:42.565Z,57.85
2018-05-03T20:16:10.572Z,58.59
2018-05-03T20:18:38.585Z,58.89
2018-05-03T20:21:06.481Z,58.79
2018-05-03T20:23:34.400Z,59.57
2018-05-03T20:26:02.341Z,59.16
2018-05-03T20:28:30.252Z,58.96
2018-05-03T20:30:58.194Z,58.74
2018-05-03T20:33:26.123Z,59.16
2018-05-03T20:35:54.099Z,59.80
2018-05-03T20:38:22.008Z,59.56
2018-05-03T20:40:49.928Z,60.59
2018-05-03T20:43:17.859Z,60.41
2018-05-03T20:45:45.761Z,60.35
2018-05-03T20:48:13.686Z,61.05
2018-05-03T20:50:41.775Z,60.83
2018-05-03T20:53:09.704Z,61.34
2018-05-03T20:55:37.619Z,61.26
2018-05-03T20:58:05.521Z,62.11
2018-05-03T21:00:33.499Z,62.49
2018-05-03T21:03:01.492Z,62.74
2018-05-03T21:05:29.900Z,62.82
2018-05-03T21:07:57.826Z,62.95
2018-05-03T21:10:25.774Z,62.49
2018-05-03T21:12:53.680Z,62.64
2018-05-03T21:15:21.610Z,63.12
2018-05-03T21:17:49.516Z,63.16
2018-05-03T21:20:17.447Z,64.37
2018-05-03T21:22:45.398Z,62.45
2018-05-03T21:25:13.325Z,62.76
2018-05-03T21:27:41.239Z,62.57
2018-05-03T21:30:09.143Z,62.02
2018-05-03T21:32:37.240Z,62.49
2018-05-03T21:35:05.185Z,62.82
2018-05-03T21:37:33.104Z,63.06
2018-05-03T21:40:01.060Z,63.32
2018-05-03T21:42:29.047Z,63.87
2018-05-03T21:44:57.012Z,63.97
2018-05-03T21:47:24.971Z,64.02
2018-05-03T21:49:52.864Z,64.30
2018-05-03T21:52:20.846Z,64.20
2018-05-03T21:54:48.729Z,64.36
2018-05-03T21:57:16.855Z,65.12
2018-05-03T21:59:45.402Z,65.40
2018-05-03T22:02:13.317Z,65.53
2018-05-03T22:04:41.232Z,65.31
2018-05-03T22:07:09.161Z,65.23
2018-05-03T22:09:37.078Z,65.28
2018-05-03T22:12:04.993Z,65.24
2018-05-03T22:14:32.949Z,65.24
2018-05-03T22:17:00.862Z,65.75
2018-05-03T22:19:28.814Z,65.69
2018-05-03T22:21:56.773Z,65.65
2018-05-03T22:24:24.672Z,65.75
2018-05-03T22:26:52.664Z,65.62
2018-05-03T22:29:20.587Z,65.95
2018-05-03T22:31:48.517Z,65.84
2018-05-03T22:34:16.487Z,65.91
2018-05-03T22:36:44.416Z,66.11
2018-05-03T22:39:12.365Z,66.05
2018-05-03T22:41:40.259Z,66.06
2018-05-03T22:44:08.180Z,66.25
2018-05-03T22:46:36.159Z,66.36
2018-05-03T22:49:04.117Z,66.46
2018-05-03T22:51:32.087Z,66.49
2018-05-03T22:54:00.073Z,66.87
2018-05-03T22:56:28.012Z,67.56
2018-05-03T22:58:55.968Z,67.85
2018-05-03T23:01:23.916Z,68.16
2018-05-03T23:03:51.819Z,68.55
2018-05-03T23:06:19.783Z,68.63
2018-05-03T23:08:47.711Z,68.74
2018-05-03T23:11:15.643Z,68.71
2018-05-03T23:13:43.540Z,69.06
2018-05-03T23:16:11.460Z,68.72
2018-05-03T23:18:39.400Z,69.10
2018-05-03T23:21:07.369Z,69.07
2018-05-03T23:23:35.266Z,69.52
2018-05-03T23:26:03.200Z,69.39
2018-05-03T23:28:31.122Z,69.59
2018-05-03T23:30:59.060Z,70.10
2018-05-03T23:33:27.009Z,69.58
2018-05-03T23:35:54.904Z,69.72
2018-05-03T23:38:22.842Z,70.41
2018-05-03T23:40:50.787Z,70.10
2018-05-03T23:43:18.709Z,70.64
2018-05-03T23:45:46.625Z,70.94
2018-05-03T23:48:14.527Z,70.53
2018-05-03T23:50:42.431Z,71.28
2018-05-03T23:53:10.338Z,71.30
2018-05-03T23:55:38.291Z,71.06
2018-05-03T23:58:06.206Z,71.03
